sensor_id;sensor_type;location;lat;lon;timestamp;P1;durP1;ratioP1;P2;durP2;ratioP2
56567;SDS011;42456;49.956;20.004;2023-03-01T00:01:21;45.10;;;21.10;;
56567;SDS011;42456;49.956;20.004;2023-03-01T00:03:50;50.90;;;24.10;;
56567;SDS011;42456;49.956;20.004;2023-03-01T00:06:18;54.10;;;22.90;;
56567;SDS011;42456;49.956;20.004;2023-03-01T00:08:46;49.10;;;23.10;;
56567;SDS011;42456;49.956;20.004;2023-03-01T00:11:17;44.50;;;18.90;;
56567;SDS011;42456;49.956;20.004;2023-03-01T00:13:47;47.60;;;22.60;;
56567;SDS011;42456;49.956;20.004;2023-03-01T00:16:17;50.90;;;24.10;;
56567;SDS011;42456;49.956;20.004;2023-03-01T00:18:47;46.30;;;22.60;;
56567;SDS011;42456;49.956;20.004;2023-03-01T00:21:13;62.60;;;26.80;;
56567;SDS011;42456;49.956;20.004;2023-03-01T00:23:40;61.80;;;25.70;;
56567;SDS011;42456;49.956;20.004;2023-03-01T00:26:08;71.70;;;31.20;;
56567;SDS011;42456;49.956;20.004;2023-03-01T00:28:39;75.90;;;31.00;;
56567;SDS011;42456;49.956;20.004;2023-03-01T00:31:06;73.30;;;31.20;;
56567;SDS011;42456;49.956;20.004;2023-03-01T00:33:35;79.40;;;31.70;;
56567;SDS011;42456;49.956;20.004;2023-03-01T00:36:02;91.10;;;32.40;;
56567;SDS011;42456;49.956;20.004;2023-03-01T00:38:30;73.90;;;31.90;;
56567;SDS011;42456;49.956;20.004;2023-03-01T00:41:02;63.80;;;28.20;;
56567;SDS011;42456;49.956;20.004;2023-03-01T00:43:30;64.90;;;28.40;;
56567;SDS011;42456;49.956;20.004;2023-03-01T00:46:07;64.00;;;28.10;;
56567;SDS011;42456;49.956;20.004;2023-03-01T00:48:37;62.00;;;28.20;;
56567;SDS011;42456;49.956;20.004;2023-03-01T00:51:07;64.70;;;28.20;;
56567;SDS011;42456;49.956;20.004;2023-03-01T00:53:36;67.00;;;28.30;;
56567;SDS011;42456;49.956;20.004;2023-03-01T00:56:04;53.60;;;22.90;;
56567;SDS011;42456;49.956;20.004;2023-03-01T00:58:32;53.00;;;22.60;;
56567;SDS011;42456;49.956;20.004;2023-03-01T01:00:59;47.10;;;20.70;;
56567;SDS011;42456;49.956;20.004;2023-03-01T01:03:26;55.50;;;24.10;;
56567;SDS011;42456;49.956;20.004;2023-03-01T01:05:53;44.30;;;20.60;;
56567;SDS011;42456;49.956;20.004;2023-03-01T01:08:20;44.10;;;20.50;;
56567;SDS011;42456;49.956;20.004;2023-03-01T01:10:47;43.50;;;21.50;;
56567;SDS011;42456;49.956;20.004;2023-03-01T01:13:14;39.60;;;21.00;;
56567;SDS011;42456;49.956;20.004;2023-03-01T01:15:41;48.50;;;21.30;;
56567;SDS011;42456;49.956;20.004;2023-03-01T01:18:08;38.10;;;20.00;;
56567;SDS011;42456;49.956;20.004;2023-03-01T01:20:35;36.70;;;19.20;;
56567;SDS011;42456;49.956;20.004;2023-03-01T01:23:04;37.50;;;19.10;;
56567;SDS011;42456;49.956;20.004;2023-03-01T01:28:00;39.50;;;18.70;;
56567;SDS011;42456;49.956;20.004;2023-03-01T01:30:27;40.20;;;19.10;;
56567;SDS011;42456;49.956;20.004;2023-03-01T01:32:54;44.10;;;20.70;;
56567;SDS011;42456;49.956;20.004;2023-03-01T01:35:21;45.20;;;21.20;;
56567;SDS011;42456;49.956;20.004;2023-03-01T01:37:48;39.90;;;20.10;;
56567;SDS011;42456;49.956;20.004;2023-03-01T01:40:15;42.30;;;21.00;;
56567;SDS011;42456;49.956;20.004;2023-03-01T01:42:42;49.40;;;23.60;;
56567;SDS011;42456;49.956;20.004;2023-03-01T01:47:53;71.40;;;28.90;;
56567;SDS011;42456;49.956;20.004;2023-03-01T01:50:23;72.20;;;28.60;;
56567;SDS011;42456;49.956;20.004;2023-03-01T01:52:51;71.60;;;29.10;;
56567;SDS011;42456;49.956;20.004;2023-03-01T01:55:20;81.10;;;31.30;;
56567;SDS011;42456;49.956;20.004;2023-03-01T01:57:55;81.00;;;31.80;;
56567;SDS011;42456;49.956;20.004;2023-03-01T02:00:26;82.70;;;32.50;;
56567;SDS011;42456;49.956;20.004;2023-03-01T02:02:58;78.10;;;31.50;;
56567;SDS011;42456;49.956;20.004;2023-03-01T02:08:01;75.00;;;30.20;;
56567;SDS011;42456;49.956;20.004;2023-03-01T02:10:28;68.10;;;28.00;;
56567;SDS011;42456;49.956;20.004;2023-03-01T02:13:00;71.40;;;30.30;;
56567;SDS011;42456;49.956;20.004;2023-03-01T02:15:31;69.20;;;28.80;;
56567;SDS011;42456;49.956;20.004;2023-03-01T02:18:00;65.00;;;29.00;;
56567;SDS011;42456;49.956;20.004;2023-03-01T02:20:35;69.90;;;28.50;;
56567;SDS011;42456;49.956;20.004;2023-03-01T02:23:05;67.80;;;27.60;;
56567;SDS011;42456;49.956;20.004;2023-03-01T02:28:23;59.60;;;25.70;;
56567;SDS011;42456;49.956;20.004;2023-03-01T02:30:50;71.60;;;27.10;;
56567;SDS011;42456;49.956;20.004;2023-03-01T02:33:32;65.90;;;26.90;;
56567;SDS011;42456;49.956;20.004;2023-03-01T02:36:07;64.60;;;26.80;;
56567;SDS011;42456;49.956;20.004;2023-03-01T02:38:41;62.20;;;26.60;;
56567;SDS011;42456;49.956;20.004;2023-03-01T02:41:08;62.80;;;25.20;;
56567;SDS011;42456;49.956;20.004;2023-03-01T02:43:39;61.20;;;26.00;;
56567;SDS011;42456;49.956;20.004;2023-03-01T02:46:17;57.40;;;24.40;;
56567;SDS011;42456;49.956;20.004;2023-03-01T02:48:47;60.70;;;26.50;;
56567;SDS011;42456;49.956;20.004;2023-03-01T02:51:27;55.40;;;25.40;;
56567;SDS011;42456;49.956;20.004;2023-03-01T02:56:47;64.90;;;26.10;;
56567;SDS011;42456;49.956;20.004;2023-03-01T02:59:16;59.30;;;24.50;;
56567;SDS011;42456;49.956;20.004;2023-03-01T03:01:45;60.90;;;24.80;;
56567;SDS011;42456;49.956;20.004;2023-03-01T03:04:13;62.40;;;25.00;;
56567;SDS011;42456;49.956;20.004;2023-03-01T03:06:45;55.60;;;23.60;;
56567;SDS011;42456;49.956;20.004;2023-03-01T03:09:13;49.20;;;21.50;;
56567;SDS011;42456;49.956;20.004;2023-03-01T03:11:42;56.80;;;24.10;;
56567;SDS011;42456;49.956;20.004;2023-03-01T03:14:10;56.50;;;23.80;;
56567;SDS011;42456;49.956;20.004;2023-03-01T03:16:43;54.90;;;23.30;;
56567;SDS011;42456;49.956;20.004;2023-03-01T03:19:11;65.90;;;25.40;;
56567;SDS011;42456;49.956;20.004;2023-03-01T03:21:38;61.70;;;25.00;;
56567;SDS011;42456;49.956;20.004;2023-03-01T03:24:06;60.00;;;25.30;;
56567;SDS011;42456;49.956;20.004;2023-03-01T03:26:32;58.90;;;24.50;;
56567;SDS011;42456;49.956;20.004;2023-03-01T03:28:59;55.30;;;22.20;;
56567;SDS011;42456;49.956;20.004;2023-03-01T03:31:26;53.90;;;25.00;;
56567;SDS011;42456;49.956;20.004;2023-03-01T03:33:53;52.50;;;23.40;;
56567;SDS011;42456;49.956;20.004;2023-03-01T03:36:22;61.90;;;24.80;;
56567;SDS011;42456;49.956;20.004;2023-03-01T03:41:17;51.10;;;21.10;;
56567;SDS011;42456;49.956;20.004;2023-03-01T03:43:44;56.30;;;23.30;;
56567;SDS011;42456;49.956;20.004;2023-03-01T03:46:11;53.60;;;22.90;;
56567;SDS011;42456;49.956;20.004;2023-03-01T03:48:40;56.30;;;23.40;;
56567;SDS011;42456;49.956;20.004;2023-03-01T03:51:11;58.70;;;23.50;;
56567;SDS011;42456;49.956;20.004;2023-03-01T03:53:41;56.10;;;23.00;;
56567;SDS011;42456;49.956;20.004;2023-03-01T03:56:09;59.60;;;24.20;;
56567;SDS011;42456;49.956;20.004;2023-03-01T03:58:37;57.90;;;24.70;;
56567;SDS011;42456;49.956;20.004;2023-03-01T04:01:04;62.00;;;24.30;;
56567;SDS011;42456;49.956;20.004;2023-03-01T04:03:31;58.30;;;24.50;;
56567;SDS011;42456;49.956;20.004;2023-03-01T04:05:59;64.70;;;27.80;;
56567;SDS011;42456;49.956;20.004;2023-03-01T04:08:27;54.40;;;24.60;;
56567;SDS011;42456;49.956;20.004;2023-03-01T04:10:59;57.40;;;22.90;;
56567;SDS011;42456;49.956;20.004;2023-03-01T04:13:47;56.20;;;23.20;;
56567;SDS011;42456;49.956;20.004;2023-03-01T04:16:14;53.70;;;23.60;;
56567;SDS011;42456;49.956;20.004;2023-03-01T04:18:41;59.60;;;23.30;;
56567;SDS011;42456;49.956;20.004;2023-03-01T04:21:08;60.80;;;25.30;;
56567;SDS011;42456;49.956;20.004;2023-03-01T04:23:35;56.80;;;24.20;;
56567;SDS011;42456;49.956;20.004;2023-03-01T04:26:02;59.00;;;24.40;;
56567;SDS011;42456;49.956;20.004;2023-03-01T04:31:03;62.30;;;26.80;;
56567;SDS011;42456;49.956;20.004;2023-03-01T04:34:01;60.40;;;24.00;;
56567;SDS011;42456;49.956;20.004;2023-03-01T04:36:27;55.10;;;22.90;;
56567;SDS011;42456;49.956;20.004;2023-03-01T04:38:56;62.70;;;24.30;;
56567;SDS011;42456;49.956;20.004;2023-03-01T04:41:23;56.30;;;23.70;;
56567;SDS011;42456;49.956;20.004;2023-03-01T04:43:51;51.20;;;22.80;;
56567;SDS011;42456;49.956;20.004;2023-03-01T04:46:19;57.70;;;23.30;;
56567;SDS011;42456;49.956;20.004;2023-03-01T04:48:47;51.50;;;21.70;;
56567;SDS011;42456;49.956;20.004;2023-03-01T04:51:14;57.20;;;23.10;;
56567;SDS011;42456;49.956;20.004;2023-03-01T04:53:42;57.80;;;23.10;;
56567;SDS011;42456;49.956;20.004;2023-03-01T04:56:09;60.40;;;24.20;;
56567;SDS011;42456;49.956;20.004;2023-03-01T04:58:36;54.40;;;22.50;;
56567;SDS011;42456;49.956;20.004;2023-03-01T05:01:07;55.20;;;22.70;;
56567;SDS011;42456;49.956;20.004;2023-03-01T05:03:45;61.30;;;22.90;;
56567;SDS011;42456;49.956;20.004;2023-03-01T05:06:16;45.60;;;20.10;;
56567;SDS011;42456;49.956;20.004;2023-03-01T05:08:44;51.80;;;22.60;;
56567;SDS011;42456;49.956;20.004;2023-03-01T05:11:11;59.70;;;22.10;;
56567;SDS011;42456;49.956;20.004;2023-03-01T05:13:38;51.30;;;22.40;;
56567;SDS011;42456;49.956;20.004;2023-03-01T05:16:07;56.30;;;23.20;;
56567;SDS011;42456;49.956;20.004;2023-03-01T05:18:39;53.70;;;22.70;;
56567;SDS011;42456;49.956;20.004;2023-03-01T05:21:07;51.40;;;22.00;;
56567;SDS011;42456;49.956;20.004;2023-03-01T05:23:36;60.90;;;25.10;;
56567;SDS011;42456;49.956;20.004;2023-03-01T05:26:04;61.90;;;23.90;;
56567;SDS011;42456;49.956;20.004;2023-03-01T05:28:36;55.20;;;22.70;;
56567;SDS011;42456;49.956;20.004;2023-03-01T05:31:04;54.40;;;23.00;;
56567;SDS011;42456;49.956;20.004;2023-03-01T05:33:39;58.10;;;25.00;;
56567;SDS011;42456;49.956;20.004;2023-03-01T05:36:07;57.60;;;25.00;;
56567;SDS011;42456;49.956;20.004;2023-03-01T05:38:36;52.30;;;21.10;;
56567;SDS011;42456;49.956;20.004;2023-03-01T05:41:02;56.10;;;22.50;;
56567;SDS011;42456;49.956;20.004;2023-03-01T05:43:30;53.60;;;23.00;;
56567;SDS011;42456;49.956;20.004;2023-03-01T05:46:00;61.10;;;23.00;;
56567;SDS011;42456;49.956;20.004;2023-03-01T05:48:27;67.50;;;24.80;;
56567;SDS011;42456;49.956;20.004;2023-03-01T05:50:54;70.30;;;25.20;;
56567;SDS011;42456;49.956;20.004;2023-03-01T05:53:21;54.10;;;22.20;;
56567;SDS011;42456;49.956;20.004;2023-03-01T05:55:47;62.80;;;24.30;;
56567;SDS011;42456;49.956;20.004;2023-03-01T05:58:17;54.10;;;21.70;;
56567;SDS011;42456;49.956;20.004;2023-03-01T06:03:14;50.50;;;20.40;;
56567;SDS011;42456;49.956;20.004;2023-03-01T06:05:43;54.20;;;22.10;;
56567;SDS011;42456;49.956;20.004;2023-03-01T06:08:11;55.20;;;23.00;;
56567;SDS011;42456;49.956;20.004;2023-03-01T06:10:39;60.80;;;23.90;;
56567;SDS011;42456;49.956;20.004;2023-03-01T06:13:07;61.00;;;24.40;;
56567;SDS011;42456;49.956;20.004;2023-03-01T06:15:34;61.70;;;25.50;;
56567;SDS011;42456;49.956;20.004;2023-03-01T06:18:01;58.20;;;24.90;;
56567;SDS011;42456;49.956;20.004;2023-03-01T06:20:28;59.00;;;24.80;;
56567;SDS011;42456;49.956;20.004;2023-03-01T06:22:55;55.60;;;24.70;;
56567;SDS011;42456;49.956;20.004;2023-03-01T06:25:23;58.30;;;24.50;;
56567;SDS011;42456;49.956;20.004;2023-03-01T06:27:51;56.00;;;25.50;;
56567;SDS011;42456;49.956;20.004;2023-03-01T06:30:19;59.00;;;26.20;;
56567;SDS011;42456;49.956;20.004;2023-03-01T06:32:48;53.40;;;25.50;;
56567;SDS011;42456;49.956;20.004;2023-03-01T06:35:15;59.90;;;28.40;;
56567;SDS011;42456;49.956;20.004;2023-03-01T06:37:44;65.80;;;31.80;;
56567;SDS011;42456;49.956;20.004;2023-03-01T06:40:13;59.20;;;27.60;;
56567;SDS011;42456;49.956;20.004;2023-03-01T06:42:42;53.90;;;25.20;;
56567;SDS011;42456;49.956;20.004;2023-03-01T06:45:10;53.50;;;24.90;;
56567;SDS011;42456;49.956;20.004;2023-03-01T06:47:37;47.60;;;22.90;;
56567;SDS011;42456;49.956;20.004;2023-03-01T06:50:05;52.90;;;25.50;;
56567;SDS011;42456;49.956;20.004;2023-03-01T06:52:32;47.60;;;23.50;;
56567;SDS011;42456;49.956;20.004;2023-03-01T06:54:59;54.00;;;26.30;;
56567;SDS011;42456;49.956;20.004;2023-03-01T06:57:26;56.80;;;26.90;;
56567;SDS011;42456;49.956;20.004;2023-03-01T06:59:53;51.40;;;25.10;;
56567;SDS011;42456;49.956;20.004;2023-03-01T07:02:20;54.00;;;25.20;;
56567;SDS011;42456;49.956;20.004;2023-03-01T07:04:51;60.00;;;28.60;;
56567;SDS011;42456;49.956;20.004;2023-03-01T07:07:18;57.20;;;28.00;;
56567;SDS011;42456;49.956;20.004;2023-03-01T07:09:46;52.40;;;27.40;;
56567;SDS011;42456;49.956;20.004;2023-03-01T07:12:15;54.30;;;26.00;;
56567;SDS011;42456;49.956;20.004;2023-03-01T07:14:43;63.40;;;31.10;;
56567;SDS011;42456;49.956;20.004;2023-03-01T07:17:10;63.40;;;30.60;;
56567;SDS011;42456;49.956;20.004;2023-03-01T07:19:38;65.50;;;30.10;;
56567;SDS011;42456;49.956;20.004;2023-03-01T07:22:05;64.70;;;31.80;;
56567;SDS011;42456;49.956;20.004;2023-03-01T07:24:34;71.70;;;34.80;;
56567;SDS011;42456;49.956;20.004;2023-03-01T07:27:01;70.90;;;33.00;;
56567;SDS011;42456;49.956;20.004;2023-03-01T07:29:28;68.20;;;32.60;;
56567;SDS011;42456;49.956;20.004;2023-03-01T07:31:55;69.90;;;31.90;;
56567;SDS011;42456;49.956;20.004;2023-03-01T07:34:22;48.20;;;26.50;;
56567;SDS011;42456;49.956;20.004;2023-03-01T07:36:49;55.60;;;28.70;;
56567;SDS011;42456;49.956;20.004;2023-03-01T07:39:16;50.30;;;27.40;;
56567;SDS011;42456;49.956;20.004;2023-03-01T07:41:45;54.80;;;27.40;;
56567;SDS011;42456;49.956;20.004;2023-03-01T07:44:11;52.00;;;25.00;;
56567;SDS011;42456;49.956;20.004;2023-03-01T07:46:38;46.30;;;23.10;;
56567;SDS011;42456;49.956;20.004;2023-03-01T07:49:05;41.90;;;20.50;;
56567;SDS011;42456;49.956;20.004;2023-03-01T07:51:32;40.50;;;20.70;;
56567;SDS011;42456;49.956;20.004;2023-03-01T07:53:59;43.90;;;21.60;;
56567;SDS011;42456;49.956;20.004;2023-03-01T07:56:26;36.80;;;19.20;;
56567;SDS011;42456;49.956;20.004;2023-03-01T07:58:53;37.00;;;18.40;;
56567;SDS011;42456;49.956;20.004;2023-03-01T08:01:20;34.90;;;18.50;;
56567;SDS011;42456;49.956;20.004;2023-03-01T08:03:48;38.30;;;17.30;;
56567;SDS011;42456;49.956;20.004;2023-03-01T08:06:16;37.90;;;20.20;;
56567;SDS011;42456;49.956;20.004;2023-03-01T08:08:43;42.30;;;21.50;;
56567;SDS011;42456;49.956;20.004;2023-03-01T08:11:11;45.70;;;25.80;;
56567;SDS011;42456;49.956;20.004;2023-03-01T08:13:40;53.50;;;26.20;;
56567;SDS011;42456;49.956;20.004;2023-03-01T08:16:09;44.70;;;20.20;;
56567;SDS011;42456;49.956;20.004;2023-03-01T08:18:38;49.60;;;28.10;;
56567;SDS011;42456;49.956;20.004;2023-03-01T08:21:06;46.40;;;22.80;;
56567;SDS011;42456;49.956;20.004;2023-03-01T08:23:38;43.30;;;22.50;;
56567;SDS011;42456;49.956;20.004;2023-03-01T08:26:09;42.70;;;20.40;;
56567;SDS011;42456;49.956;20.004;2023-03-01T08:28:39;42.60;;;21.70;;
56567;SDS011;42456;49.956;20.004;2023-03-01T08:31:13;44.10;;;22.80;;
56567;SDS011;42456;49.956;20.004;2023-03-01T08:33:41;38.10;;;20.10;;
56567;SDS011;42456;49.956;20.004;2023-03-01T08:36:08;46.30;;;23.90;;
56567;SDS011;42456;49.956;20.004;2023-03-01T08:38:35;39.70;;;21.00;;
56567;SDS011;42456;49.956;20.004;2023-03-01T08:41:02;34.00;;;18.30;;
56567;SDS011;42456;49.956;20.004;2023-03-01T08:43:30;35.40;;;17.80;;
56567;SDS011;42456;49.956;20.004;2023-03-01T08:45:57;37.40;;;18.80;;
56567;SDS011;42456;49.956;20.004;2023-03-01T08:48:24;37.80;;;20.40;;
56567;SDS011;42456;49.956;20.004;2023-03-01T08:50:53;38.10;;;20.20;;
56567;SDS011;42456;49.956;20.004;2023-03-01T08:53:21;36.90;;;18.00;;
56567;SDS011;42456;49.956;20.004;2023-03-01T08:55:48;31.80;;;16.30;;
56567;SDS011;42456;49.956;20.004;2023-03-01T08:58:16;38.60;;;19.20;;
56567;SDS011;42456;49.956;20.004;2023-03-01T09:00:42;36.30;;;19.90;;
56567;SDS011;42456;49.956;20.004;2023-03-01T09:03:09;32.90;;;17.20;;
56567;SDS011;42456;49.956;20.004;2023-03-01T09:05:36;34.20;;;19.00;;
56567;SDS011;42456;49.956;20.004;2023-03-01T09:08:03;36.00;;;17.40;;
56567;SDS011;42456;49.956;20.004;2023-03-01T09:10:30;35.20;;;19.60;;
56567;SDS011;42456;49.956;20.004;2023-03-01T09:12:57;31.20;;;16.60;;
56567;SDS011;42456;49.956;20.004;2023-03-01T09:15:24;42.30;;;21.60;;
56567;SDS011;42456;49.956;20.004;2023-03-01T09:17:51;37.60;;;19.70;;
56567;SDS011;42456;49.956;20.004;2023-03-01T09:20:18;34.30;;;18.00;;
56567;SDS011;42456;49.956;20.004;2023-03-01T09:22:45;36.10;;;18.10;;
56567;SDS011;42456;49.956;20.004;2023-03-01T09:25:12;47.00;;;23.70;;
56567;SDS011;42456;49.956;20.004;2023-03-01T09:27:39;37.40;;;19.60;;
56567;SDS011;42456;49.956;20.004;2023-03-01T09:30:06;40.20;;;20.70;;
56567;SDS011;42456;49.956;20.004;2023-03-01T09:32:36;43.20;;;21.10;;
56567;SDS011;42456;49.956;20.004;2023-03-01T09:35:03;40.40;;;20.70;;
56567;SDS011;42456;49.956;20.004;2023-03-01T09:37:32;39.90;;;20.50;;
56567;SDS011;42456;49.956;20.004;2023-03-01T09:40:00;35.10;;;19.10;;
56567;SDS011;42456;49.956;20.004;2023-03-01T09:42:29;46.50;;;22.80;;
56567;SDS011;42456;49.956;20.004;2023-03-01T09:45:04;53.70;;;26.90;;
56567;SDS011;42456;49.956;20.004;2023-03-01T09:47:34;46.70;;;23.40;;
56567;SDS011;42456;49.956;20.004;2023-03-01T10:00:56;47.40;;;23.80;;
56567;SDS011;42456;49.956;20.004;2023-03-01T10:03:34;44.80;;;23.20;;
56567;SDS011;42456;49.956;20.004;2023-03-01T10:06:09;44.50;;;23.20;;
56567;SDS011;42456;49.956;20.004;2023-03-01T10:08:54;41.70;;;21.70;;
56567;SDS011;42456;49.956;20.004;2023-03-01T10:11:32;45.10;;;24.50;;
56567;SDS011;42456;49.956;20.004;2023-03-01T10:19:22;40.20;;;19.80;;
56567;SDS011;42456;49.956;20.004;2023-03-01T10:24:56;41.60;;;19.80;;
56567;SDS011;42456;49.956;20.004;2023-03-01T10:27:25;44.10;;;23.40;;
56567;SDS011;42456;49.956;20.004;2023-03-01T10:32:43;42.90;;;21.90;;
56567;SDS011;42456;49.956;20.004;2023-03-01T10:40:49;44.00;;;19.70;;
56567;SDS011;42456;49.956;20.004;2023-03-01T10:43:18;40.90;;;21.10;;
56567;SDS011;42456;49.956;20.004;2023-03-01T10:45:45;37.30;;;19.50;;
56567;SDS011;42456;49.956;20.004;2023-03-01T10:56:05;37.20;;;17.60;;
56567;SDS011;42456;49.956;20.004;2023-03-01T10:58:36;36.30;;;18.30;;
56567;SDS011;42456;49.956;20.004;2023-03-01T11:01:05;36.20;;;19.00;;
56567;SDS011;42456;49.956;20.004;2023-03-01T11:06:32;38.40;;;19.50;;
56567;SDS011;42456;49.956;20.004;2023-03-01T11:11:45;34.70;;;16.90;;
56567;SDS011;42456;49.956;20.004;2023-03-01T11:14:24;34.20;;;16.60;;
56567;SDS011;42456;49.956;20.004;2023-03-01T11:17:00;36.30;;;17.90;;
56567;SDS011;42456;49.956;20.004;2023-03-01T11:19:37;39.10;;;19.30;;
56567;SDS011;42456;49.956;20.004;2023-03-01T11:22:16;32.80;;;16.00;;
56567;SDS011;42456;49.956;20.004;2023-03-01T11:24:47;32.40;;;16.40;;
56567;SDS011;42456;49.956;20.004;2023-03-01T11:27:36;31.40;;;16.10;;
56567;SDS011;42456;49.956;20.004;2023-03-01T11:30:12;26.30;;;13.30;;
56567;SDS011;42456;49.956;20.004;2023-03-01T11:32:47;32.30;;;14.70;;
56567;SDS011;42456;49.956;20.004;2023-03-01T11:35:18;30.20;;;16.00;;
56567;SDS011;42456;49.956;20.004;2023-03-01T11:38:02;28.00;;;13.70;;
56567;SDS011;42456;49.956;20.004;2023-03-01T11:59:42;25.50;;;12.00;;
56567;SDS011;42456;49.956;20.004;2023-03-01T12:10:30;22.80;;;11.20;;
56567;SDS011;42456;49.956;20.004;2023-03-01T12:30:09;24.50;;;12.00;;
56567;SDS011;42456;49.956;20.004;2023-03-01T12:32:55;24.70;;;12.60;;
56567;SDS011;42456;49.956;20.004;2023-03-01T12:39:06;22.50;;;11.70;;
56567;SDS011;42456;49.956;20.004;2023-03-01T12:46:25;27.20;;;13.10;;
56567;SDS011;42456;49.956;20.004;2023-03-01T12:56:46;22.50;;;10.70;;
56567;SDS011;42456;49.956;20.004;2023-03-01T13:07:41;23.80;;;11.50;;
56567;SDS011;42456;49.956;20.004;2023-03-01T13:10:21;20.10;;;9.20;;
56567;SDS011;42456;49.956;20.004;2023-03-01T13:17:55;19.10;;;10.00;;
56567;SDS011;42456;49.956;20.004;2023-03-01T13:20:24;23.20;;;10.90;;
56567;SDS011;42456;49.956;20.004;2023-03-01T13:33:45;22.40;;;10.60;;
56567;SDS011;42456;49.956;20.004;2023-03-01T13:39:26;18.10;;;9.50;;
56567;SDS011;42456;49.956;20.004;2023-03-01T13:42:27;20.60;;;9.30;;
56567;SDS011;42456;49.956;20.004;2023-03-01T13:44:57;18.90;;;9.70;;
56567;SDS011;42456;49.956;20.004;2023-03-01T13:47:25;17.60;;;8.10;;
56567;SDS011;42456;49.956;20.004;2023-03-01T13:49:58;21.80;;;9.00;;
56567;SDS011;42456;49.956;20.004;2023-03-01T13:55:02;22.20;;;9.40;;
56567;SDS011;42456;49.956;20.004;2023-03-01T13:57:34;20.40;;;8.70;;
56567;SDS011;42456;49.956;20.004;2023-03-01T14:00:05;18.60;;;8.60;;
56567;SDS011;42456;49.956;20.004;2023-03-01T14:02:33;19.80;;;9.00;;
56567;SDS011;42456;49.956;20.004;2023-03-01T14:05:02;19.00;;;9.90;;
56567;SDS011;42456;49.956;20.004;2023-03-01T14:07:29;19.20;;;9.70;;
56567;SDS011;42456;49.956;20.004;2023-03-01T14:09:58;18.90;;;8.90;;
56567;SDS011;42456;49.956;20.004;2023-03-01T14:18:43;20.20;;;9.20;;
56567;SDS011;42456;49.956;20.004;2023-03-01T14:21:20;21.50;;;9.70;;
56567;SDS011;42456;49.956;20.004;2023-03-01T14:23:49;24.90;;;10.90;;
56567;SDS011;42456;49.956;20.004;2023-03-01T14:26:19;19.90;;;9.80;;
56567;SDS011;42456;49.956;20.004;2023-03-01T14:28:48;22.70;;;11.10;;
56567;SDS011;42456;49.956;20.004;2023-03-01T14:34:24;22.30;;;10.90;;
56567;SDS011;42456;49.956;20.004;2023-03-01T14:36:51;24.40;;;10.10;;
56567;SDS011;42456;49.956;20.004;2023-03-01T14:39:18;19.10;;;9.60;;
56567;SDS011;42456;49.956;20.004;2023-03-01T14:41:50;24.10;;;12.20;;
56567;SDS011;42456;49.956;20.004;2023-03-01T14:44:21;23.00;;;10.80;;
56567;SDS011;42456;49.956;20.004;2023-03-01T14:46:55;21.00;;;9.80;;
56567;SDS011;42456;49.956;20.004;2023-03-01T14:49:24;24.00;;;11.60;;
56567;SDS011;42456;49.956;20.004;2023-03-01T14:54:27;21.50;;;10.60;;
56567;SDS011;42456;49.956;20.004;2023-03-01T14:56:59;23.60;;;12.50;;
56567;SDS011;42456;49.956;20.004;2023-03-01T14:59:27;19.60;;;9.50;;
56567;SDS011;42456;49.956;20.004;2023-03-01T15:01:55;21.80;;;10.50;;
56567;SDS011;42456;49.956;20.004;2023-03-01T15:06:53;26.40;;;11.50;;
56567;SDS011;42456;49.956;20.004;2023-03-01T15:09:22;20.50;;;9.70;;
56567;SDS011;42456;49.956;20.004;2023-03-01T15:11:50;21.80;;;10.40;;
56567;SDS011;42456;49.956;20.004;2023-03-01T15:14:27;21.00;;;10.40;;
56567;SDS011;42456;49.956;20.004;2023-03-01T15:20:06;20.90;;;9.70;;
56567;SDS011;42456;49.956;20.004;2023-03-01T15:22:43;21.10;;;10.30;;
56567;SDS011;42456;49.956;20.004;2023-03-01T15:25:18;19.30;;;9.60;;
56567;SDS011;42456;49.956;20.004;2023-03-01T15:27:47;20.70;;;10.90;;
56567;SDS011;42456;49.956;20.004;2023-03-01T15:30:17;22.60;;;11.20;;
56567;SDS011;42456;49.956;20.004;2023-03-01T15:35:54;21.80;;;10.50;;
56567;SDS011;42456;49.956;20.004;2023-03-01T15:40:51;21.50;;;10.70;;
56567;SDS011;42456;49.956;20.004;2023-03-01T15:46:05;23.80;;;11.50;;
56567;SDS011;42456;49.956;20.004;2023-03-01T15:48:32;23.70;;;11.70;;
56567;SDS011;42456;49.956;20.004;2023-03-01T15:50:59;26.00;;;12.20;;
56567;SDS011;42456;49.956;20.004;2023-03-01T15:53:27;25.90;;;12.50;;
56567;SDS011;42456;49.956;20.004;2023-03-01T15:55:54;25.10;;;13.00;;
56567;SDS011;42456;49.956;20.004;2023-03-01T15:58:22;25.30;;;12.30;;
56567;SDS011;42456;49.956;20.004;2023-03-01T16:00:51;28.10;;;12.90;;
56567;SDS011;42456;49.956;20.004;2023-03-01T16:03:28;26.10;;;12.10;;
56567;SDS011;42456;49.956;20.004;2023-03-01T16:05:55;23.70;;;12.20;;
56567;SDS011;42456;49.956;20.004;2023-03-01T16:08:23;27.90;;;13.90;;
56567;SDS011;42456;49.956;20.004;2023-03-01T16:10:50;26.80;;;13.10;;
56567;SDS011;42456;49.956;20.004;2023-03-01T16:13:17;28.70;;;13.60;;
56567;SDS011;42456;49.956;20.004;2023-03-01T16:15:45;24.70;;;12.70;;
56567;SDS011;42456;49.956;20.004;2023-03-01T16:18:12;26.90;;;13.60;;
56567;SDS011;42456;49.956;20.004;2023-03-01T16:20:39;28.60;;;13.20;;
56567;SDS011;42456;49.956;20.004;2023-03-01T16:23:07;25.80;;;12.90;;
56567;SDS011;42456;49.956;20.004;2023-03-01T16:25:35;26.80;;;13.40;;
56567;SDS011;42456;49.956;20.004;2023-03-01T16:28:02;30.80;;;14.00;;
56567;SDS011;42456;49.956;20.004;2023-03-01T16:30:36;28.80;;;14.90;;
56567;SDS011;42456;49.956;20.004;2023-03-01T16:33:05;30.90;;;14.80;;
56567;SDS011;42456;49.956;20.004;2023-03-01T16:35:55;31.40;;;15.80;;
56567;SDS011;42456;49.956;20.004;2023-03-01T16:38:22;31.80;;;15.50;;
56567;SDS011;42456;49.956;20.004;2023-03-01T16:40:50;32.60;;;14.90;;
56567;SDS011;42456;49.956;20.004;2023-03-01T16:43:17;36.90;;;17.30;;
56567;SDS011;42456;49.956;20.004;2023-03-01T16:45:44;40.30;;;19.90;;
56567;SDS011;42456;49.956;20.004;2023-03-01T16:48:13;38.30;;;18.60;;
56567;SDS011;42456;49.956;20.004;2023-03-01T16:50:40;37.50;;;17.90;;
56567;SDS011;42456;49.956;20.004;2023-03-01T16:53:07;38.90;;;18.00;;
56567;SDS011;42456;49.956;20.004;2023-03-01T16:55:35;37.10;;;17.90;;
56567;SDS011;42456;49.956;20.004;2023-03-01T16:58:02;40.00;;;19.10;;
56567;SDS011;42456;49.956;20.004;2023-03-01T17:00:30;41.10;;;20.00;;
56567;SDS011;42456;49.956;20.004;2023-03-01T17:02:57;43.40;;;20.90;;
56567;SDS011;42456;49.956;20.004;2023-03-01T17:05:25;46.40;;;22.90;;
56567;SDS011;42456;49.956;20.004;2023-03-01T17:07:52;42.80;;;19.80;;
56567;SDS011;42456;49.956;20.004;2023-03-01T17:10:22;48.50;;;23.30;;
56567;SDS011;42456;49.956;20.004;2023-03-01T17:12:48;46.20;;;22.70;;
56567;SDS011;42456;49.956;20.004;2023-03-01T17:15:16;42.20;;;20.00;;
56567;SDS011;42456;49.956;20.004;2023-03-01T17:17:43;39.80;;;20.80;;
56567;SDS011;42456;49.956;20.004;2023-03-01T17:20:10;41.50;;;22.20;;